Time;durP1;ratioP1;P1;durP2;ratioP2;P2;SDS_P1;SDS_P2;PMS_P1;PMS_P2;Temp;Humidity;BMP_temperature;BMP_pressure;BME280_temperature;BME280_humidity;BME280_pressure;Samples;Min_cycle;Max_cycle;Signal;HPM_P1;HPM_P2
2023/11/26 00:00:49;;;;;;;11.63;4.90;;;5.20;99.90;;;;;;5026119;28;20048;-86
2023/11/26 00:03:15;;;;;;;10.48;4.75;;;5.10;99.90;;;;;;5042086;28;20033;-85
2023/11/26 00:05:40;;;;;;;13.27;5.05;;;5.10;99.90;;;;;;5076678;28;20037;-86
2023/11/26 00:08:06;;;;;;;9.65;4.45;;;5.10;99.90;;;;;;5058428;28;20117;-86
2023/11/26 00:10:32;;;;;;;10.43;5.15;;;5.00;99.90;;;;;;5076471;28;20116;-85
2023/11/26 00:12:57;;;;;;;8.98;4.63;;;5.00;99.90;;;;;;5077029;28;20033;-85
2023/11/26 00:15:23;;;;;;;12.27;4.88;;;5.00;99.90;;;;;;5041863;28;20033;-86
2023/11/26 00:17:49;;;;;;;12.30;5.75;;;4.90;99.90;;;;;;5041842;28;20127;-86
2023/11/26 00:20:15;;;;;;;10.02;4.57;;;4.90;99.90;;;;;;5076171;28;20029;-85
2023/11/26 00:22:42;;;;;;;11.02;4.72;;;4.90;99.90;;;;;;5058479;28;20031;-85
2023/11/26 00:25:07;;;;;;;9.88;4.55;;;4.80;99.90;;;;;;5058589;28;20024;-86
2023/11/26 00:27:33;;;;;;;8.68;4.30;;;4.80;99.90;;;;;;5058662;28;20024;-85
2023/11/26 00:29:59;;;;;;;9.57;4.53;;;4.80;99.90;;;;;;5041792;28;20079;-87
2023/11/26 00:32:25;;;;;;;11.80;4.70;;;4.70;99.90;;;;;;5041648;28;20039;-86
2023/11/26 00:34:51;;;;;;;8.65;5.00;;;4.70;99.90;;;;;;5058468;28;20062;-85
2023/11/26 00:37:17;;;;;;;10.77;5.20;;;4.70;99.90;;;;;;5058382;28;20112;-86
2023/11/26 00:39:43;;;;;;;9.73;4.90;;;4.60;99.90;;;;;;5058038;28;20082;-86
2023/11/26 00:42:08;;;;;;;10.88;4.82;;;4.60;99.90;;;;;;5041830;28;20028;-85
2023/11/26 00:44:35;;;;;;;10.10;4.80;;;4.50;99.90;;;;;;5076425;28;20027;-86
2023/11/26 00:47:01;;;;;;;10.60;4.68;;;4.50;99.90;;;;;;5042369;28;20029;-86
2023/11/26 00:49:26;;;;;;;10.38;4.72;;;4.50;99.90;;;;;;5042894;28;20043;-86
2023/11/26 00:51:52;;;;;;;9.50;4.50;;;4.50;99.90;;;;;;5048611;28;20020;-85
2023/11/26 00:54:18;;;;;;;8.60;4.45;;;4.40;99.90;;;;;;5065428;28;20011;-86
2023/11/26 00:56:44;;;;;;;12.45;4.40;;;4.40;99.90;;;;;;5099765;28;20021;-84
2023/11/26 00:59:10;;;;;;;10.50;4.70;;;4.40;99.90;;;;;;5051221;28;20032;-86
2023/11/26 01:01:35;;;;;;;10.40;4.85;;;4.30;99.90;;;;;;5041058;28;20031;-86
2023/11/26 01:04:01;;;;;;;10.05;5.13;;;4.30;99.90;;;;;;5041244;28;20033;-86
2023/11/26 01:06:27;;;;;;;15.43;5.40;;;4.20;99.90;;;;;;5041202;28;20040;-87
2023/11/26 01:08:52;;;;;;;12.35;4.70;;;4.20;99.90;;;;;;5040984;28;20049;-86
2023/11/26 01:11:18;;;;;;;12.93;5.00;;;4.20;99.90;;;;;;5057564;28;20119;-86
2023/11/26 01:13:44;;;;;;;9.68;4.65;;;4.20;99.90;;;;;;5056778;28;20035;-86
2023/11/26 01:16:10;;;;;;;10.93;5.03;;;4.20;99.90;;;;;;5041057;28;20029;-85
2023/11/26 01:18:38;;;;;;;13.07;5.18;;;4.20;99.90;;;;;;5057570;28;20032;-85
2023/11/26 01:21:04;;;;;;;7.90;4.18;;;4.20;99.90;;;;;;5057364;28;20029;-86
2023/11/26 01:23:29;;;;;;;11.15;4.50;;;4.20;99.90;;;;;;5024214;28;20027;-85
2023/11/26 01:25:55;;;;;;;8.70;4.93;;;4.20;99.90;;;;;;5040844;28;20078;-86
2023/11/26 01:28:20;;;;;;;12.85;5.05;;;4.20;99.90;;;;;;5057413;28;20147;-86
2023/11/26 01:30:46;;;;;;;11.70;4.82;;;4.10;99.90;;;;;;5040869;28;20032;-86
2023/11/26 01:33:12;;;;;;;11.70;4.93;;;4.10;99.90;;;;;;5024114;28;20502;-86
2023/11/26 01:35:37;;;;;;;11.63;4.53;;;4.20;99.90;;;;;;5040866;28;20036;-86
2023/11/26 01:38:03;;;;;;;10.60;4.40;;;4.10;99.90;;;;;;5040896;28;20033;-85
2023/11/26 01:40:35;;;;;;;13.07;5.28;;;4.20;99.90;;;;;;5040707;28;20484;-86
2023/11/26 01:43:01;;;;;;;10.68;4.60;;;4.10;99.90;;;;;;5056988;28;20025;-86
2023/11/26 01:45:26;;;;;;;9.55;4.53;;;4.10;99.90;;;;;;5024067;28;20124;-87
2023/11/26 01:47:52;;;;;;;8.20;4.10;;;4.10;99.90;;;;;;5057065;28;20036;-86
2023/11/26 01:50:23;;;;;;;10.20;5.10;;;4.10;99.90;;;;;;5056918;28;20029;-87
2023/11/26 01:52:50;;;;;;;10.63;4.60;;;4.10;99.90;;;;;;5057325;28;20032;-87
2023/11/26 01:55:17;;;;;;;10.90;4.57;;;4.10;99.90;;;;;;5056942;28;20047;-86
2023/11/26 01:57:44;;;;;;;8.68;4.07;;;4.10;99.90;;;;;;5057194;28;20029;-87
2023/11/26 02:00:11;;;;;;;9.07;4.05;;;4.10;99.90;;;;;;5040795;28;20037;-86
2023/11/26 02:02:37;;;;;;;9.95;4.10;;;4.10;99.90;;;;;;5040443;28;20037;-86
2023/11/26 02:05:03;;;;;;;10.02;4.38;;;4.10;99.90;;;;;;5023976;28;20048;-87
2023/11/26 02:07:29;;;;;;;6.90;4.18;;;4.00;99.90;;;;;;5040572;28;20039;-85
2023/11/26 02:09:54;;;;;;;6.68;3.65;;;4.00;99.90;;;;;;5063212;28;20040;-86
2023/11/26 02:12:20;;;;;;;8.80;3.90;;;4.00;99.90;;;;;;5046124;28;20080;-86
2023/11/26 02:14:49;;;;;;;8.45;3.88;;;4.00;99.90;;;;;;5047787;28;20021;-85
2023/11/26 02:17:15;;;;;;;9.45;4.20;;;4.00;99.90;;;;;;5064431;28;20023;-84
2023/11/26 02:19:41;;;;;;;8.65;3.80;;;3.90;99.90;;;;;;5041619;28;20028;-86
2023/11/26 02:22:08;;;;;;;8.55;3.55;;;3.90;99.90;;;;;;5058333;28;20032;-86
2023/11/26 02:24:49;;;;;;;9.13;4.18;;;3.90;99.90;;;;;;5056806;28;20031;-86
2023/11/26 02:27:15;;;;;;;11.75;3.75;;;3.90;99.90;;;;;;5040653;28;20034;-87
2023/11/26 02:29:41;;;;;;;8.02;3.83;;;3.90;99.90;;;;;;5073010;28;20139;-87
2023/11/26 02:32:08;;;;;;;7.53;4.10;;;3.90;99.90;;;;;;5055990;28;20025;-86
2023/11/26 02:34:37;;;;;;;9.32;5.00;;;3.80;99.90;;;;;;5055899;28;20044;-87
2023/11/26 02:37:02;;;;;;;9.57;4.20;;;3.80;99.90;;;;;;5039596;28;20033;-87
2023/11/26 02:39:28;;;;;;;8.50;4.18;;;3.80;99.90;;;;;;5039721;28;20105;-87
2023/11/26 02:41:58;;;;;;;9.60;3.92;;;3.80;99.90;;;;;;5055972;28;20094;-86
2023/11/26 02:44:24;;;;;;;11.00;4.57;;;3.80;99.90;;;;;;5023888;28;20132;-86
2023/11/26 02:46:50;;;;;;;8.23;3.78;;;3.70;99.90;;;;;;5056459;28;20036;-87
2023/11/26 02:49:16;;;;;;;6.82;3.38;;;3.70;99.90;;;;;;5056122;28;20111;-86
2023/11/26 02:51:42;;;;;;;5.93;3.50;;;3.70;99.90;;;;;;5074010;28;20030;-86
2023/11/26 02:54:08;;;;;;;9.85;4.07;;;3.70;99.90;;;;;;5023818;28;20048;-86
2023/11/26 02:56:34;;;;;;;7.72;3.67;;;3.70;99.90;;;;;;5039606;28;20456;-87
2023/11/26 02:59:00;;;;;;;7.60;3.75;;;3.70;99.90;;;;;;5023605;28;20056;-86
2023/11/26 03:01:28;;;;;;;13.32;4.55;;;3.70;99.90;;;;;;5039318;28;20469;-87
2023/11/26 03:03:55;;;;;;;7.72;4.20;;;3.70;99.90;;;;;;5073686;28;20033;-87
2023/11/26 03:06:26;;;;;;;9.25;3.70;;;3.70;99.90;;;;;;5039565;28;20024;-86
2023/11/26 03:08:59;;;;;;;11.73;4.30;;;3.60;99.90;;;;;;5055763;28;20068;-87
2023/11/26 03:14:30;;;;;;;7.00;3.05;;;3.60;99.90;;;;;;4961402;28;20175;-86
2023/11/26 03:16:55;;;;;;;8.15;3.65;;;3.60;99.90;;;;;;5035355;28;20133;-86
2023/11/26 03:19:21;;;;;;;8.23;3.58;;;3.60;99.90;;;;;;5055901;28;20448;-86
2023/11/26 03:21:48;;;;;;;6.55;3.55;;;3.60;99.90;;;;;;5039375;28;20028;-87
2023/11/26 03:24:15;;;;;;;8.13;3.72;;;3.50;99.90;;;;;;5055770;28;20487;-86
2023/11/26 03:26:41;;;;;;;8.85;3.53;;;3.50;99.90;;;;;;5039647;28;20017;-87
2023/11/26 03:29:07;;;;;;;8.70;3.45;;;3.50;99.90;;;;;;5073866;28;20112;-86
2023/11/26 03:31:33;;;;;;;6.53;3.50;;;3.50;99.90;;;;;;5045786;28;20025;-86
2023/11/26 03:33:59;;;;;;;10.27;4.03;;;3.50;99.90;;;;;;5063429;28;20088;-86
2023/11/26 03:36:25;;;;;;;10.57;4.05;;;3.50;99.90;;;;;;5081669;28;20017;-85
2023/11/26 03:38:51;;;;;;;8.18;3.70;;;3.50;99.90;;;;;;5082772;28;20035;-87
2023/11/26 03:41:17;;;;;;;8.95;3.67;;;3.50;99.90;;;;;;5063399;28;20025;-86
2023/11/26 03:43:42;;;;;;;7.70;3.30;;;3.50;99.90;;;;;;5043961;28;20074;-87
2023/11/26 03:46:08;;;;;;;7.75;3.08;;;3.50;99.90;;;;;;5059725;28;20424;-87
2023/11/26 03:48:34;;;;;;;7.38;3.63;;;3.50;99.90;;;;;;5026536;28;20033;-86
2023/11/26 03:51:00;;;;;;;7.22;3.70;;;3.50;99.90;;;;;;5026611;28;20027;-87
2023/11/26 03:53:25;;;;;;;7.38;3.20;;;3.50;99.90;;;;;;5059848;28;20028;-87
2023/11/26 03:55:51;;;;;;;5.85;3.33;;;3.60;99.90;;;;;;5043100;28;20021;-86
2023/11/26 03:58:16;;;;;;;9.23;3.58;;;3.60;99.90;;;;;;5077535;28;20028;-87
2023/11/26 04:00:42;;;;;;;6.90;3.30;;;3.60;99.90;;;;;;5026112;28;20052;-86
2023/11/26 04:03:08;;;;;;;5.30;3.20;;;3.60;99.90;;;;;;5026161;28;20134;-87
2023/11/26 04:05:33;;;;;;;7.72;3.53;;;3.60;99.90;;;;;;5059291;28;20029;-87
2023/11/26 04:07:59;;;;;;;9.15;3.50;;;3.60;99.90;;;;;;5022438;28;20053;-86
2023/11/26 04:10:25;;;;;;;7.45;3.42;;;3.60;99.90;;;;;;5039057;28;20515;-87
2023/11/26 04:12:50;;;;;;;8.10;3.13;;;3.50;99.90;;;;;;5039153;28;20052;-87
2023/11/26 04:15:22;;;;;;;9.13;3.42;;;3.50;99.90;;;;;;5038932;28;20078;-87
2023/11/26 04:17:48;;;;;;;7.40;3.42;;;3.50;99.90;;;;;;5039973;28;20090;-87
2023/11/26 04:20:15;;;;;;;8.05;3.15;;;3.50;99.90;;;;;;5057158;28;20086;-86
2023/11/26 04:22:41;;;;;;;7.75;3.38;;;3.40;99.90;;;;;;5056873;28;20020;-86
2023/11/26 04:25:07;;;;;;;6.97;3.13;;;3.40;99.90;;;;;;5055771;28;20480;-87
2023/11/26 04:27:33;;;;;;;6.80;2.97;;;3.40;99.90;;;;;;5039058;28;20029;-86
2023/11/26 04:30:01;;;;;;;4.68;2.80;;;3.40;99.90;;;;;;5038998;28;20041;-86
2023/11/26 04:32:27;;;;;;;6.22;3.05;;;3.40;99.90;;;;;;5023380;28;20415;-86
2023/11/26 04:34:52;;;;;;;6.43;3.20;;;3.40;99.90;;;;;;5022586;28;20117;-87
2023/11/26 04:37:18;;;;;;;11.95;3.45;;;3.40;99.90;;;;;;5038864;28;20029;-87
2023/11/26 04:39:44;;;;;;;4.45;3.17;;;3.40;99.90;;;;;;5038548;28;20104;-86
2023/11/26 04:42:10;;;;;;;6.18;3.03;;;3.40;99.90;;;;;;5022379;28;20021;-86
2023/11/26 04:44:36;;;;;;;7.35;3.25;;;3.40;99.90;;;;;;5038985;28;20127;-86
2023/11/26 04:47:02;;;;;;;6.40;3.30;;;3.40;99.90;;;;;;5058246;28;20025;-86
2023/11/26 04:49:28;;;;;;;6.97;3.30;;;3.30;99.90;;;;;;5055319;28;20093;-86
2023/11/26 04:51:53;;;;;;;7.80;3.72;;;3.30;99.90;;;;;;5041485;28;20036;-86
2023/11/26 04:54:21;;;;;;;5.03;2.90;;;3.30;99.90;;;;;;5057023;28;20013;-86
2023/11/26 04:56:47;;;;;;;7.53;3.63;;;3.40;99.90;;;;;;5061210;28;20108;-85
2023/11/26 04:59:13;;;;;;;9.65;3.50;;;3.40;99.90;;;;;;5079042;28;20019;-86
2023/11/26 05:01:43;;;;;;;5.70;2.85;;;3.40;99.90;;;;;;5062943;28;20025;-86
2023/11/26 05:04:15;;;;;;;7.70;3.30;;;3.40;99.90;;;;;;5043052;28;20456;-86
2023/11/26 05:06:44;;;;;;;7.03;3.10;;;3.40;99.90;;;;;;5057178;28;20255;-86
2023/11/26 05:09:11;;;;;;;6.88;3.00;;;3.40;99.90;;;;;;5054810;28;20106;-86
2023/11/26 05:11:44;;;;;;;5.90;3.25;;;3.40;99.90;;;;;;5055938;28;20048;-86
2023/11/26 05:14:12;;;;;;;8.48;3.15;;;3.40;99.90;;;;;;5055879;28;20500;-86
2023/11/26 05:16:38;;;;;;;6.75;3.22;;;3.40;99.90;;;;;;5055749;28;20044;-86
2023/11/26 05:19:04;;;;;;;6.22;2.70;;;3.40;99.90;;;;;;5054384;28;20029;-86
2023/11/26 05:21:30;;;;;;;7.25;2.65;;;3.40;99.90;;;;;;5054429;28;20027;-86
2023/11/26 05:23:55;;;;;;;6.05;2.95;;;3.40;99.90;;;;;;5037959;28;20111;-86
2023/11/26 05:26:21;;;;;;;5.57;2.85;;;3.40;99.90;;;;;;5021338;28;20025;-87
2023/11/26 05:28:47;;;;;;;5.75;2.90;;;3.40;99.90;;;;;;5053364;28;20024;-86
2023/11/26 05:31:14;;;;;;;6.30;2.88;;;3.40;99.90;;;;;;5054113;28;20380;-86
2023/11/26 05:33:40;;;;;;;7.07;3.00;;;3.50;99.90;;;;;;5037295;28;20078;-85
2023/11/26 05:36:07;;;;;;;8.18;2.97;;;3.50;99.90;;;;;;5054386;28;20025;-86
2023/11/26 05:38:32;;;;;;;5.63;2.72;;;3.50;99.90;;;;;;5020956;28;20029;-85
2023/11/26 05:40:58;;;;;;;7.72;2.92;;;3.50;99.90;;;;;;5053574;28;20511;-87
2023/11/26 05:43:25;;;;;;;7.13;2.80;;;3.50;99.90;;;;;;5037325;28;20033;-86
2023/11/26 05:45:51;;;;;;;4.90;2.33;;;3.50;99.90;;;;;;5053606;28;20035;-86
2023/11/26 05:48:18;;;;;;;6.70;2.40;;;3.60;99.90;;;;;;5053610;28;20033;-86
2023/11/26 05:50:43;;;;;;;8.07;2.40;;;3.60;99.90;;;;;;5054589;28;20034;-86
2023/11/26 05:53:09;;;;;;;7.75;2.70;;;3.70;99.90;;;;;;5053950;28;20380;-86
2023/11/26 05:55:35;;;;;;;5.63;2.53;;;3.70;99.90;;;;;;5053895;28;20071;-86
2023/11/26 05:58:00;;;;;;;5.18;2.20;;;3.80;99.90;;;;;;5054686;28;20033;-86
2023/11/26 06:00:26;;;;;;;5.43;2.28;;;3.90;99.90;;;;;;5053199;28;20028;-86
2023/11/26 06:02:52;;;;;;;6.43;2.40;;;3.90;99.90;;;;;;5036989;28;20029;-87
2023/11/26 06:05:18;;;;;;;6.70;2.45;;;4.00;99.90;;;;;;5037425;28;20029;-87
2023/11/26 06:07:44;;;;;;;7.15;2.65;;;4.00;99.90;;;;;;5020989;28;20059;-87
2023/11/26 06:10:09;;;;;;;6.70;2.38;;;4.10;99.90;;;;;;5037799;28;20543;-86
2023/11/26 06:12:35;;;;;;;6.40;2.63;;;4.20;99.90;;;;;;5062982;28;20032;-85
2023/11/26 06:15:02;;;;;;;7.25;2.70;;;4.20;99.90;;;;;;5077247;28;20039;-86
2023/11/26 06:17:27;;;;;;;5.07;2.15;;;4.20;99.90;;;;;;5061382;28;20019;-87
2023/11/26 06:19:53;;;;;;;6.65;2.30;;;4.30;99.90;;;;;;5077318;28;20044;-86
2023/11/26 06:22:18;;;;;;;6.78;2.30;;;4.30;99.90;;;;;;5039228;28;20400;-87
2023/11/26 06:24:45;;;;;;;6.28;1.77;;;4.30;99.90;;;;;;5020797;28;20492;-86
2023/11/26 06:27:11;;;;;;;7.20;2.10;;;4.30;99.90;;;;;;5036981;28;20108;-87
2023/11/26 06:29:37;;;;;;;6.47;1.77;;;4.40;99.90;;;;;;5036710;28;20528;-87
2023/11/26 06:32:04;;;;;;;4.85;2.05;;;4.40;99.90;;;;;;5036503;28;20040;-86
2023/11/26 06:34:31;;;;;;;6.90;1.90;;;4.50;99.90;;;;;;5036639;28;20021;-86
2023/11/26 06:36:58;;;;;;;4.57;1.50;;;4.50;99.90;;;;;;5052980;28;20051;-86
2023/11/26 06:39:25;;;;;;;5.18;2.20;;;4.50;99.90;;;;;;5053982;28;20461;-87
2023/11/26 06:41:50;;;;;;;4.05;1.67;;;4.50;99.90;;;;;;5036361;28;20465;-86
2023/11/26 06:44:16;;;;;;;2.85;1.80;;;4.60;99.90;;;;;;5053115;28;20029;-86
2023/11/26 06:46:42;;;;;;;6.07;1.60;;;4.50;99.90;;;;;;5036259;28;20484;-86
2023/11/26 06:49:08;;;;;;;5.43;1.73;;;4.60;99.90;;;;;;5019827;28;20029;-86
2023/11/26 06:51:34;;;;;;;4.82;1.80;;;4.60;99.90;;;;;;5036557;28;20028;-87
2023/11/26 06:53:59;;;;;;;2.67;1.25;;;4.60;99.90;;;;;;5036443;28;20033;-87
2023/11/26 06:56:25;;;;;;;6.97;1.77;;;4.60;99.90;;;;;;5053055;28;20030;-87
2023/11/26 06:58:51;;;;;;;4.03;1.50;;;4.60;99.90;;;;;;5019911;28;20037;-86
2023/11/26 07:01:17;;;;;;;4.68;1.60;;;4.60;99.90;;;;;;5052734;28;20037;-85
2023/11/26 07:03:43;;;;;;;5.63;1.85;;;4.70;99.90;;;;;;5036591;28;20051;-87
2023/11/26 07:06:10;;;;;;;4.10;1.90;;;4.70;99.90;;;;;;5052337;28;20045;-86
2023/11/26 07:08:38;;;;;;;3.63;1.60;;;4.70;99.90;;;;;;5064882;28;20472;-85
2023/11/26 07:11:07;;;;;;;5.47;2.10;;;4.80;99.90;;;;;;5040479;28;20029;-86
2023/11/26 07:13:33;;;;;;;2.65;1.42;;;4.80;99.90;;;;;;5077949;28;20025;-86
2023/11/26 07:15:59;;;;;;;4.85;1.50;;;4.80;99.90;;;;;;5077716;28;20464;-86
2023/11/26 07:18:25;;;;;;;7.25;2.00;;;4.90;99.90;;;;;;5060176;28;20472;-86
2023/11/26 07:20:51;;;;;;;3.67;1.90;;;4.90;99.90;;;;;;5059991;28;20107;-87
2023/11/26 07:23:17;;;;;;;3.60;1.60;;;4.90;99.90;;;;;;5042903;28;20361;-86
2023/11/26 07:25:43;;;;;;;5.53;1.75;;;4.90;99.90;;;;;;5042993;28;20033;-86
2023/11/26 07:28:11;;;;;;;6.28;2.30;;;4.90;99.90;;;;;;5043426;28;20036;-86
2023/11/26 07:30:37;;;;;;;7.68;2.50;;;5.00;99.90;;;;;;5043770;28;20039;-86
2023/11/26 07:33:03;;;;;;;4.05;2.40;;;5.00;99.90;;;;;;5044200;28;20037;-86
2023/11/26 07:35:32;;;;;;;7.72;4.43;;;5.00;99.90;;;;;;5075053;28;20012;-86
2023/11/26 07:38:00;;;;;;;9.70;5.20;;;5.00;99.90;;;;;;5084346;28;20020;-83
2023/11/26 07:40:26;;;;;;;10.48;5.50;;;5.00;99.90;;;;;;5063430;28;20082;-87
2023/11/26 07:42:52;;;;;;;8.13;5.00;;;5.00;99.90;;;;;;5052735;28;20025;-86
2023/11/26 07:45:18;;;;;;;6.68;3.55;;;5.10;99.90;;;;;;5027440;28;20032;-86
2023/11/26 07:47:43;;;;;;;6.72;3.40;;;5.10;99.90;;;;;;5027152;28;20055;-86
2023/11/26 07:50:09;;;;;;;7.18;2.70;;;5.10;99.90;;;;;;5076945;28;20036;-86
2023/11/26 07:52:36;;;;;;;4.53;2.15;;;5.10;99.90;;;;;;5043246;28;20131;-85
2023/11/26 07:55:04;;;;;;;6.90;2.88;;;5.10;99.90;;;;;;5059097;28;20028;-86
2023/11/26 07:57:30;;;;;;;6.75;2.72;;;5.20;99.90;;;;;;5059262;28;20027;-86
2023/11/26 07:59:57;;;;;;;5.38;2.63;;;5.20;99.90;;;;;;5025808;28;20116;-86
2023/11/26 08:02:23;;;;;;;5.82;2.63;;;5.20;99.90;;;;;;5058879;28;20452;-86
2023/11/26 08:04:53;;;;;;;6.57;2.30;;;5.30;99.90;;;;;;5042455;28;20127;-86
2023/11/26 08:07:27;;;;;;;4.75;2.20;;;5.30;99.90;;;;;;5042555;28;20486;-87
2023/11/26 08:09:54;;;;;;;5.90;2.20;;;5.30;99.90;;;;;;5059308;28;20068;-87
2023/11/26 08:12:23;;;;;;;3.65;1.77;;;5.30;99.90;;;;;;5059137;28;20037;-87
2023/11/26 08:14:51;;;;;;;4.63;2.40;;;5.30;99.90;;;;;;5026161;28;20555;-86
2023/11/26 08:17:19;;;;;;;2.72;1.77;;;5.30;99.90;;;;;;5058823;28;20052;-86
2023/11/26 08:19:48;;;;;;;5.13;1.67;;;5.40;99.90;;;;;;5076373;28;20028;-86
2023/11/26 08:22:14;;;;;;;2.97;1.90;;;5.40;99.90;;;;;;5058721;28;20024;-86
2023/11/26 08:24:42;;;;;;;4.97;1.80;;;5.40;99.90;;;;;;5026031;28;20403;-86
2023/11/26 08:27:14;;;;;;;4.32;1.80;;;5.50;99.90;;;;;;5059232;28;20030;-86
2023/11/26 08:29:43;;;;;;;4.05;2.22;;;5.50;99.90;;;;;;5042683;28;20039;-86
2023/11/26 08:32:10;;;;;;;5.65;1.95;;;5.60;99.90;;;;;;5058894;28;20028;-87
2023/11/26 08:34:41;;;;;;;3.03;1.40;;;5.60;99.90;;;;;;5058532;28;20089;-86
2023/11/26 08:37:08;;;;;;;4.70;1.85;;;5.60;99.90;;;;;;5059635;28;20035;-87
2023/11/26 08:39:38;;;;;;;4.10;1.90;;;5.60;99.90;;;;;;5058783;28;20128;-86
2023/11/26 08:42:04;;;;;;;5.07;1.90;;;5.70;99.90;;;;;;5076337;28;20025;-85
2023/11/26 08:44:32;;;;;;;5.35;1.90;;;5.70;99.90;;;;;;5076423;28;20099;-87
2023/11/26 08:46:59;;;;;;;4.60;1.92;;;5.70;99.90;;;;;;5057844;28;20024;-85
2023/11/26 08:49:26;;;;;;;3.58;1.70;;;5.80;99.90;;;;;;5058166;28;20110;-85
2023/11/26 08:51:54;;;;;;;4.90;1.98;;;5.80;99.90;;;;;;5041661;28;20020;-84
2023/11/26 08:54:22;;;;;;;6.43;2.03;;;5.90;99.90;;;;;;5058922;28;20464;-83
2023/11/26 08:56:51;;;;;;;4.35;1.58;;;5.90;99.90;;;;;;5055451;28;20024;-85
2023/11/26 08:59:17;;;;;;;4.55;1.98;;;6.00;99.90;;;;;;5082568;28;20005;-86
2023/11/26 09:01:43;;;;;;;6.15;1.70;;;6.10;99.90;;;;;;5065722;28;20013;-83
2023/11/26 09:04:08;;;;;;;6.40;2.05;;;6.10;99.90;;;;;;5048644;28;20036;-86
2023/11/26 09:06:34;;;;;;;3.70;2.03;;;6.10;99.90;;;;;;5055944;28;20029;-85
2023/11/26 09:09:00;;;;;;;4.80;1.95;;;6.20;99.90;;;;;;5025078;28;20055;-85
2023/11/26 09:11:26;;;;;;;7.75;2.55;;;6.20;99.90;;;;;;5040545;28;20376;-85
2023/11/26 09:13:52;;;;;;;4.30;1.95;;;6.30;99.90;;;;;;5057333;28;20051;-84
2023/11/26 09:16:19;;;;;;;3.90;1.63;;;6.30;99.90;;;;;;5040679;28;20480;-84
2023/11/26 09:18:46;;;;;;;6.05;2.05;;;6.30;99.90;;;;;;5040901;28;20503;-84
2023/11/26 09:21:12;;;;;;;4.45;2.33;;;6.40;99.90;;;;;;5023891;28;20081;-84
2023/11/26 09:23:42;;;;;;;6.18;2.30;;;6.50;99.90;;;;;;5056660;28;20025;-85
2023/11/26 09:26:10;;;;;;;4.15;1.95;;;6.50;99.90;;;;;;5040491;28;20040;-86
2023/11/26 09:28:36;;;;;;;3.88;2.50;;;6.50;99.90;;;;;;5056647;28;20051;-85
2023/11/26 09:31:03;;;;;;;8.55;2.70;;;6.60;99.90;;;;;;5040624;28;20024;-85
2023/11/26 09:33:29;;;;;;;5.38;2.03;;;6.60;99.90;;;;;;5039954;28;20033;-85
2023/11/26 09:35:55;;;;;;;5.43;2.63;;;6.60;99.90;;;;;;5040678;28;20024;-85
2023/11/26 09:38:21;;;;;;;3.88;2.28;;;6.70;99.90;;;;;;5056771;28;20020;-86
2023/11/26 09:40:46;;;;;;;5.60;2.40;;;6.80;99.90;;;;;;5040133;28;20040;-85
2023/11/26 09:43:14;;;;;;;5.18;2.80;;;6.80;99.90;;;;;;5039870;28;20040;-85
2023/11/26 09:45:41;;;;;;;7.18;3.55;;;6.80;99.90;;;;;;5056865;28;20020;-85
2023/11/26 09:48:09;;;;;;;8.50;4.25;;;6.90;99.90;;;;;;5074688;28;20088;-84
2023/11/26 09:50:35;;;;;;;9.77;4.50;;;6.90;99.90;;;;;;5057347;28;20020;-85
2023/11/26 09:53:01;;;;;;;10.95;4.68;;;7.00;99.90;;;;;;5056683;28;20029;-84
2023/11/26 09:55:32;;;;;;;9.80;3.95;;;7.00;99.90;;;;;;5039953;28;20027;-84
2023/11/26 09:57:58;;;;;;;5.50;2.97;;;6.90;99.90;;;;;;5056601;28;20035;-85
2023/11/26 10:00:24;;;;;;;6.93;2.92;;;7.00;99.90;;;;;;5023309;28;20037;-84
2023/11/26 10:03:02;;;;;;;5.35;3.28;;;7.10;99.90;;;;;;5039789;28;20032;-84
2023/11/26 10:05:29;;;;;;;5.45;2.50;;;7.10;99.90;;;;;;5056384;28;20032;-84
2023/11/26 10:07:55;;;;;;;4.05;2.50;;;7.20;99.90;;;;;;5052883;28;20489;-83
2023/11/26 10:10:23;;;;;;;5.78;2.70;;;7.20;99.90;;;;;;5053151;28;20036;-84
2023/11/26 10:12:59;;;;;;;7.07;2.60;;;7.20;99.90;;;;;;5052908;28;20032;-84
2023/11/26 10:15:30;;;;;;;6.30;2.45;;;7.30;99.90;;;;;;5054909;28;20035;-84
2023/11/26 10:18:09;;;;;;;4.57;2.20;;;7.40;99.90;;;;;;5058960;28;20017;-86
2023/11/26 10:20:42;;;;;;;6.13;3.10;;;7.40;99.90;;;;;;5065962;28;20021;-86
2023/11/26 10:23:08;;;;;;;6.25;2.80;;;7.40;99.90;;;;;;5073791;28;20097;-85
2023/11/26 10:25:34;;;;;;;7.50;2.97;;;7.50;99.90;;;;;;5075032;28;20110;-86
2023/11/26 10:28:00;;;;;;;4.85;2.70;;;7.50;99.90;;;;;;5058299;28;20021;-86
2023/11/26 10:30:32;;;;;;;6.30;2.67;;;7.50;99.90;;;;;;5056284;28;20053;-85
2023/11/26 10:33:00;;;;;;;;;;;7.60;99.90;;;;;;5067937;28;20033;-86
2023/11/26 10:35:25;;;;;;;7.28;2.58;;;7.60;99.90;;;;;;5054167;28;19950;-86
2023/11/26 10:38:08;;;;;;;6.10;2.80;;;7.70;99.90;;;;;;5037522;28;20029;-87
2023/11/26 10:40:34;;;;;;;8.15;2.65;;;7.70;99.90;;;;;;5053481;28;20159;-85
2023/11/26 10:43:01;;;;;;;5.35;2.65;;;7.80;99.90;;;;;;5019739;28;20436;-86
2023/11/26 10:45:28;;;;;;;4.50;2.55;;;7.80;99.90;;;;;;5051890;28;20021;-87
2023/11/26 10:47:59;;;;;;;6.72;2.45;;;7.80;99.90;;;;;;5035772;28;20078;-86
2023/11/26 10:50:25;;;;;;;6.22;2.65;;;7.80;99.90;;;;;;5052725;28;20052;-86
2023/11/26 10:52:56;;;;;;;7.45;2.42;;;7.80;99.90;;;;;;5053852;28;20453;-87
2023/11/26 10:55:32;;;;;;;4.68;2.28;;;7.80;99.90;;;;;;5052901;28;20109;-87
2023/11/26 10:58:17;;;;;;;6.28;2.38;;;7.80;99.90;;;;;;5053240;28;20056;-88
2023/11/26 11:00:48;;;;;;;8.98;2.35;;;7.80;99.90;;;;;;5052398;28;20043;-86
2023/11/26 11:03:14;;;;;;;5.10;2.23;;;7.80;99.90;;;;;;5052225;28;20338;-86
2023/11/26 11:05:41;;;;;;;5.10;2.05;;;7.80;99.90;;;;;;5035635;28;20516;-85
2023/11/26 11:08:08;;;;;;;6.50;2.58;;;7.90;99.90;;;;;;5052087;28;20111;-86
2023/11/26 11:10:48;;;;;;;5.50;2.13;;;7.80;99.90;;;;;;5051832;28;20025;-87
2023/11/26 11:13:20;;;;;;;5.53;2.43;;;7.90;99.90;;;;;;5052359;28;20452;-85
2023/11/26 11:15:47;;;;;;;7.03;2.40;;;8.00;99.90;;;;;;5051979;28;20658;-86
2023/11/26 11:18:30;;;;;;;7.45;2.25;;;8.00;99.90;;;;;;5052315;28;20033;-86
2023/11/26 11:21:26;;;;;;;7.68;2.53;;;8.00;99.90;;;;;;5053170;28;20049;-86
2023/11/26 11:23:54;;;;;;;6.70;2.60;;;8.00;99.90;;;;;;5043815;28;20041;-86
2023/11/26 11:26:22;;;;;;;4.72;2.00;;;8.00;99.90;;;;;;5053898;28;20033;-87
2023/11/26 11:28:49;;;;;;;8.77;2.50;;;8.10;99.90;;;;;;5020877;28;20124;-85
2023/11/26 11:31:20;;;;;;;6.43;2.30;;;8.10;99.90;;;;;;5054652;28;20029;-86
2023/11/26 11:34:01;;;;;;;7.97;2.80;;;8.10;99.90;;;;;;5053536;28;20033;-86
2023/11/26 11:36:44;;;;;;;6.07;2.30;;;8.20;99.90;;;;;;5052216;28;20496;-86
2023/11/26 11:39:13;;;;;;;4.55;2.28;;;8.20;99.90;;;;;;5052820;28;20779;-86
2023/11/26 11:41:57;;;;;;;5.60;2.38;;;8.30;99.90;;;;;;5052304;28;20035;-87
2023/11/26 11:44:32;;;;;;;6.95;2.17;;;8.30;99.90;;;;;;5053383;28;20025;-86
2023/11/26 11:47:01;;;;;;;6.00;2.47;;;8.30;99.90;;;;;;5056951;28;20029;-86
2023/11/26 11:49:46;;;;;;;6.90;2.22;;;8.30;99.90;;;;;;5054512;28;20025;-87
2023/11/26 11:52:16;;;;;;;8.25;2.88;;;8.40;99.90;;;;;;5067709;28;20021;-88
2023/11/26 11:54:54;;;;;;;6.10;2.47;;;8.30;99.90;;;;;;5076684;28;20013;-86
2023/11/26 11:57:23;;;;;;;6.35;2.70;;;8.40;99.90;;;;;;5078105;28;20014;-86
2023/11/26 11:59:50;;;;;;;5.68;2.33;;;8.40;99.90;;;;;;5077269;28;20036;-87
2023/11/26 12:02:16;;;;;;;6.85;2.47;;;8.50;99.90;;;;;;5057707;28;20037;-86
2023/11/26 12:04:50;;;;;;;4.97;2.13;;;8.50;99.90;;;;;;5023107;28;20101;-86
2023/11/26 12:07:17;;;;;;;6.32;2.17;;;8.50;99.90;;;;;;5040577;28;20025;-86
2023/11/26 12:09:44;;;;;;;5.88;2.35;;;8.50;99.90;;;;;;5058096;28;20076;-86
2023/11/26 12:12:09;;;;;;;5.20;1.95;;;8.60;99.90;;;;;;5056685;28;20060;-86
2023/11/26 12:14:36;;;;;;;5.03;2.17;;;8.60;99.90;;;;;;5039945;28;20427;-86
2023/11/26 12:17:09;;;;;;;6.03;2.10;;;8.60;99.90;;;;;;5055895;28;20048;-85
2023/11/26 12:19:39;;;;;;;5.30;2.30;;;8.70;99.90;;;;;;5039519;28;20086;-85
2023/11/26 12:22:06;;;;;;;4.18;2.13;;;8.70;99.90;;;;;;5057263;28;20035;-86
2023/11/26 12:24:33;;;;;;;4.90;2.25;;;8.70;99.90;;;;;;5054782;28;20032;-86
2023/11/26 12:26:59;;;;;;;7.57;2.35;;;8.70;99.90;;;;;;5054700;28;20243;-86
2023/11/26 12:29:27;;;;;;;7.72;2.45;;;8.70;99.90;;;;;;5054275;28;20581;-87
2023/11/26 12:31:57;;;;;;;7.65;2.40;;;8.70;99.90;;;;;;5055901;28;20526;-88
2023/11/26 12:34:24;;;;;;;5.03;1.92;;;8.70;99.90;;;;;;5038337;28;20025;-89
2023/11/26 12:36:51;;;;;;;4.70;1.90;;;8.70;99.90;;;;;;5055292;28;20111;-86
2023/11/26 12:39:21;;;;;;;5.05;1.55;;;8.70;99.90;;;;;;5055109;28;20091;-87
2023/11/26 12:41:47;;;;;;;5.18;1.90;;;8.70;99.90;;;;;;5055712;28;20139;-87
2023/11/26 12:44:14;;;;;;;5.72;1.80;;;8.70;99.90;;;;;;5056208;28;20025;-87
2023/11/26 12:46:40;;;;;;;4.82;2.00;;;8.70;99.90;;;;;;5056041;28;20037;-86
2023/11/26 12:49:17;;;;;;;5.05;1.88;;;8.80;99.90;;;;;;5056576;28;20072;-87
2023/11/26 12:51:46;;;;;;;4.93;1.77;;;8.70;99.90;;;;;;5038833;28;20025;-86
2023/11/26 12:54:12;;;;;;;3.75;1.73;;;8.70;99.90;;;;;;5057623;28;20028;-87
2023/11/26 12:56:41;;;;;;;6.38;2.20;;;8.70;99.90;;;;;;5058624;28;20033;-86
2023/11/26 12:59:08;;;;;;;5.05;2.10;;;8.70;99.90;;;;;;5042908;28;20491;-86